Time;durP1;ratioP1;P1;durP2;ratioP2;P2;SDS_P1;SDS_P2;PMS_P1;PMS_P2;Temp;Humidity;BMP_temperature;BMP_pressure;BME280_temperature;BME280_humidity;BME280_pressure;Samples;Min_cycle;Max_cycle;Signal;HPM_P1;HPM_P2
2021/05/28 05:00:35;;;;;;;7.53;4.90;;;12.90;99.60;;;;;;5854301;23;20081;-86
2021/05/28 05:03:03;;;;;;;7.00;4.22;;;12.90;99.80;;;;;;4976062;28;20306;-86
2021/05/28 05:05:31;;;;;;;6.13;4.32;;;12.80;99.90;;;;;;4976503;28;20427;-86
2021/05/28 05:07:57;;;;;;;7.95;5.10;;;12.80;99.90;;;;;;4976611;28;20137;-86
2021/05/28 05:10:24;;;;;;;7.95;5.40;;;12.90;99.90;;;;;;4976839;28;20074;-86
2021/05/28 05:12:51;;;;;;;6.95;5.10;;;12.80;99.90;;;;;;4976522;28;20082;-86
2021/05/28 05:15:17;;;;;;;8.27;5.28;;;12.90;99.90;;;;;;4976444;28;20700;-86
2021/05/28 05:17:45;;;;;;;7.05;5.05;;;12.90;99.90;;;;;;4976305;28;20185;-86
2021/05/28 05:20:14;;;;;;;9.27;5.43;;;12.90;99.90;;;;;;4976174;28;20050;-86
2021/05/28 05:22:41;;;;;;;8.25;5.82;;;13.00;99.90;;;;;;4976195;28;20130;-86
2021/05/28 05:25:09;;;;;;;9.00;5.80;;;13.10;99.90;;;;;;4958911;28;20065;-87
2021/05/28 05:27:36;;;;;;;9.07;6.32;;;13.10;99.90;;;;;;4975966;28;20137;-86
2021/05/28 05:30:03;;;;;;;6.63;5.05;;;13.20;99.90;;;;;;4975867;28;20523;-86
2021/05/28 05:32:30;;;;;;;7.55;5.20;;;13.20;99.70;;;;;;4976060;28;20089;-86
2021/05/28 05:34:57;;;;;;;7.15;4.88;;;13.30;99.50;;;;;;4976238;28;20467;-86
2021/05/28 05:37:24;;;;;;;6.38;4.30;;;13.30;99.30;;;;;;4975846;28;20126;-86
2021/05/28 05:39:51;;;;;;;7.20;4.55;;;13.40;98.80;;;;;;4976015;28;20051;-86
2021/05/28 05:42:17;;;;;;;5.95;3.70;;;13.40;98.20;;;;;;4998880;23;20145;-77
2021/05/28 05:44:44;;;;;;;5.80;3.97;;;13.40;97.80;;;;;;4994669;28;20086;-77
2021/05/28 05:47:11;;;;;;;5.63;4.15;;;13.40;97.90;;;;;;4995253;28;20081;-77
2021/05/28 05:49:37;;;;;;;5.72;3.45;;;13.50;98.40;;;;;;4995238;28;20503;-77
2021/05/28 05:52:05;;;;;;;7.15;3.90;;;13.50;97.90;;;;;;4994766;28;20097;-76
2021/05/28 05:54:33;;;;;;;6.75;3.63;;;13.60;97.90;;;;;;4994528;28;20050;-76
2021/05/28 05:57:00;;;;;;;6.45;4.05;;;13.60;97.70;;;;;;4994648;28;20109;-77
2021/05/28 05:59:28;;;;;;;5.05;3.50;;;13.70;97.60;;;;;;4994639;28;20504;-77
2021/05/28 06:01:55;;;;;;;5.63;3.53;;;13.80;97.50;;;;;;4994966;28;20077;-77
2021/05/28 06:04:22;;;;;;;8.85;4.35;;;13.80;97.50;;;;;;4994578;28;20129;-77
2021/05/28 06:06:48;;;;;;;8.93;4.50;;;13.90;97.20;;;;;;4994389;28;20087;-78
2021/05/28 06:09:16;;;;;;;6.95;3.72;;;13.90;96.80;;;;;;4994827;28;20195;-78
2021/05/28 06:11:42;;;;;;;5.22;3.50;;;13.90;96.90;;;;;;4994299;28;20086;-77
2021/05/28 06:14:09;;;;;;;5.65;3.55;;;13.80;96.60;;;;;;4994260;28;20057;-79
2021/05/28 06:16:36;;;;;;;5.88;3.30;;;13.80;96.60;;;;;;4994365;28;20137;-77
2021/05/28 06:19:02;;;;;;;6.70;3.85;;;13.80;96.70;;;;;;4995136;28;20132;-76
2021/05/28 06:21:31;;;;;;;7.03;3.90;;;13.80;96.60;;;;;;4994173;28;20489;-78
2021/05/28 06:23:58;;;;;;;5.82;3.38;;;13.70;96.60;;;;;;4994059;28;20495;-77
2021/05/28 06:26:25;;;;;;;5.88;3.60;;;13.70;96.60;;;;;;4994056;28;20097;-78
2021/05/28 06:28:52;;;;;;;6.32;3.80;;;13.70;96.70;;;;;;4994129;28;20050;-77
2021/05/28 06:31:19;;;;;;;7.15;4.28;;;13.70;96.50;;;;;;4994016;28;20133;-78
2021/05/28 06:33:45;;;;;;;5.32;3.35;;;13.70;96.60;;;;;;4994114;28;20078;-79
2021/05/28 06:36:12;;;;;;;6.00;3.58;;;13.80;96.80;;;;;;4994049;28;20089;-77
2021/05/28 06:38:38;;;;;;;7.45;4.30;;;13.80;96.60;;;;;;4993974;28;20134;-78
2021/05/28 06:41:05;;;;;;;6.00;3.70;;;13.80;96.20;;;;;;4993941;28;20089;-78
2021/05/28 06:43:32;;;;;;;6.32;4.20;;;13.80;96.20;;;;;;4976202;28;20094;-78
2021/05/28 06:45:59;;;;;;;6.13;3.78;;;13.80;96.00;;;;;;4974432;28;20504;-78
2021/05/28 06:48:26;;;;;;;10.65;4.20;;;13.80;96.00;;;;;;4975288;28;20303;-76
2021/05/28 06:50:53;;;;;;;7.15;3.75;;;13.90;95.90;;;;;;4975382;28;20086;-76
2021/05/28 06:53:19;;;;;;;6.05;3.60;;;13.90;96.00;;;;;;4974444;28;20089;-75
2021/05/28 06:55:46;;;;;;;5.93;3.75;;;14.00;96.20;;;;;;4975196;28;20580;-75
2021/05/28 06:58:13;;;;;;;6.18;3.83;;;14.10;95.90;;;;;;4974979;28;20452;-76
2021/05/28 07:00:40;;;;;;;5.15;3.42;;;14.10;95.90;;;;;;4974339;28;20075;-77
2021/05/28 07:03:07;;;;;;;7.38;3.97;;;14.20;95.80;;;;;;4974323;28;20512;-77
2021/05/28 07:05:33;;;;;;;6.50;3.45;;;14.20;95.80;;;;;;4977705;28;20418;-77
2021/05/28 07:08:00;;;;;;;6.40;3.30;;;14.30;95.80;;;;;;4978277;28;20138;-76
2021/05/28 07:10:27;;;;;;;7.47;4.30;;;14.40;95.90;;;;;;4978186;28;20054;-79
2021/05/28 07:12:54;;;;;;;6.47;3.75;;;14.50;95.60;;;;;;4978302;28;20137;-77
2021/05/28 07:15:20;;;;;;;6.28;3.33;;;14.50;95.40;;;;;;4978235;28;20090;-78
2021/05/28 07:17:48;;;;;;;5.60;3.50;;;14.60;95.30;;;;;;4977966;28;20092;-79
2021/05/28 07:20:16;;;;;;;6.05;3.40;;;14.60;95.30;;;;;;4978160;28;20332;-76
2021/05/28 07:22:43;;;;;;;5.95;3.63;;;14.70;95.20;;;;;;4978108;28;20500;-77
2021/05/28 07:25:12;;;;;;;6.40;3.42;;;14.80;95.20;;;;;;4977761;28;20082;-78
2021/05/28 07:27:38;;;;;;;5.35;2.85;;;14.80;95.00;;;;;;4977728;28;20043;-77
2021/05/28 07:30:08;;;;;;;6.68;3.55;;;14.90;94.90;;;;;;4978129;28;20090;-78
2021/05/28 07:32:35;;;;;;;6.18;3.58;;;14.90;94.80;;;;;;4977763;28;20098;-74
2021/05/28 07:35:03;;;;;;;6.55;3.67;;;15.00;94.40;;;;;;4977908;28;20082;-78
2021/05/28 07:37:30;;;;;;;6.93;3.75;;;15.00;93.90;;;;;;4977655;28;20143;-77
2021/05/28 07:39:57;;;;;;;5.95;3.25;;;15.00;93.40;;;;;;4977661;28;20455;-78
2021/05/28 07:42:23;;;;;;;5.78;3.17;;;14.90;93.50;;;;;;4985982;28;20486;-77
2021/05/28 07:44:51;;;;;;;5.22;3.30;;;14.90;93.70;;;;;;4997169;28;20141;-78
2021/05/28 07:47:17;;;;;;;5.07;3.00;;;14.90;93.70;;;;;;4997247;28;20050;-78
2021/05/28 07:49:44;;;;;;;5.95;3.20;;;14.80;93.80;;;;;;4997140;28;20074;-78
2021/05/28 07:52:11;;;;;;;9.32;4.03;;;14.80;93.60;;;;;;4996931;28;20089;-78
2021/05/28 07:54:38;;;;;;;6.50;3.65;;;14.90;93.80;;;;;;4996728;28;20535;-78
2021/05/28 07:57:05;;;;;;;5.55;3.10;;;14.90;93.80;;;;;;4997084;28;20077;-77
2021/05/28 07:59:32;;;;;;;6.57;3.13;;;14.90;93.90;;;;;;4997035;28;20495;-78
2021/05/28 08:01:58;;;;;;;6.57;3.00;;;14.90;94.10;;;;;;4997200;28;20050;-78
2021/05/28 08:04:25;;;;;;;6.72;3.03;;;15.00;94.10;;;;;;4996807;28;20082;-78
2021/05/28 08:06:52;;;;;;;7.88;3.78;;;15.10;94.00;;;;;;4997186;28;20562;-78
2021/05/28 08:09:19;;;;;;;6.20;3.08;;;15.10;93.30;;;;;;4996915;28;20077;-78
2021/05/28 08:11:48;;;;;;;5.38;3.72;;;15.10;93.60;;;;;;4996674;28;20137;-78
2021/05/28 08:14:15;;;;;;;4.88;3.08;;;15.20;93.60;;;;;;4996784;28;20061;-77
2021/05/28 08:16:41;;;;;;;5.80;3.00;;;15.20;93.70;;;;;;4996122;28;20524;-77
2021/05/28 08:19:08;;;;;;;5.95;3.15;;;15.30;93.50;;;;;;4996668;28;20082;-77
2021/05/28 08:21:34;;;;;;;4.93;3.25;;;15.40;93.30;;;;;;4997055;28;20050;-77
2021/05/28 08:24:01;;;;;;;5.68;3.63;;;15.60;93.20;;;;;;4996620;28;20574;-79
2021/05/28 08:26:28;;;;;;;6.22;3.58;;;15.70;93.20;;;;;;4996714;28;20142;-78
2021/05/28 08:28:55;;;;;;;5.97;3.20;;;15.70;93.10;;;;;;4996586;28;20141;-76
2021/05/28 08:31:22;;;;;;;9.10;4.00;;;15.70;93.20;;;;;;4996845;28;20058;-76
2021/05/28 08:33:48;;;;;;;8.32;4.20;;;15.80;92.70;;;;;;4996944;28;20082;-77
2021/05/28 08:36:15;;;;;;;6.18;3.35;;;15.70;92.40;;;;;;4997363;28;20092;-77
2021/05/28 08:38:41;;;;;;;7.13;3.55;;;15.80;92.40;;;;;;4996464;28;20061;-77
2021/05/28 08:41:10;;;;;;;6.88;3.85;;;16.00;92.30;;;;;;4996247;28;20058;-78
2021/05/28 08:43:38;;;;;;;7.70;3.85;;;16.10;91.90;;;;;;4995844;28;20412;-79
2021/05/28 08:46:07;;;;;;;5.95;3.63;;;16.20;92.20;;;;;;4996066;28;20062;-77
2021/05/28 08:48:33;;;;;;;6.53;4.00;;;16.20;91.80;;;;;;4996400;28;20129;-76
2021/05/28 08:51:00;;;;;;;5.13;3.10;;;16.30;91.10;;;;;;4996211;28;20137;-76
2021/05/28 08:53:28;;;;;;;5.50;3.03;;;16.20;91.20;;;;;;4995982;28;20090;-76
2021/05/28 08:55:55;;;;;;;6.25;3.40;;;16.20;91.10;;;;;;4995985;28;20057;-77
2021/05/28 08:58:22;;;;;;;7.72;3.60;;;16.20;90.90;;;;;;4995833;28;20137;-76
2021/05/28 09:00:52;;;;;;;6.55;3.72;;;16.20;90.10;;;;;;4995982;28;20086;-77
2021/05/28 09:03:22;;;;;;;5.50;3.28;;;16.20;90.10;;;;;;4995809;28;20210;-77
2021/05/28 09:05:51;;;;;;;6.93;3.50;;;16.20;90.20;;;;;;4996146;28;20050;-76
2021/05/28 09:08:26;;;;;;;5.80;3.03;;;16.20;90.20;;;;;;4997889;28;20057;-77
2021/05/28 09:10:54;;;;;;;4.90;2.30;;;16.30;90.00;;;;;;4995699;28;20160;-77
2021/05/28 09:13:26;;;;;;;4.30;2.30;;;16.40;89.20;;;;;;4995872;28;20431;-76
2021/05/28 09:16:08;;;;;;;5.00;2.85;;;16.50;89.20;;;;;;4995633;28;20076;-76
2021/05/28 09:18:47;;;;;;;5.32;2.70;;;16.60;88.40;;;;;;4996104;28;20101;-76
2021/05/28 09:21:23;;;;;;;4.95;2.50;;;16.70;87.20;;;;;;4996962;28;20058;-77
2021/05/28 09:23:50;;;;;;;4.53;2.55;;;16.80;86.00;;;;;;5006696;28;20058;-75
2021/05/28 09:26:17;;;;;;;3.90;2.20;;;16.70;86.30;;;;;;5013292;28;20051;-77
2021/05/28 09:28:46;;;;;;;4.97;2.50;;;16.80;87.10;;;;;;5009497;28;20058;-75
2021/05/28 09:31:16;;;;;;;5.90;2.72;;;16.80;86.60;;;;;;4996545;28;20074;-76
2021/05/28 09:33:46;;;;;;;4.75;2.58;;;16.80;84.70;;;;;;4995695;28;20057;-76
2021/05/28 09:36:20;;;;;;;4.32;2.20;;;16.70;85.00;;;;;;4995378;28;20053;-75
2021/05/28 09:39:04;;;;;;;6.55;2.40;;;16.80;85.60;;;;;;4995920;28;20057;-76
2021/05/28 09:41:49;;;;;;;4.40;2.50;;;16.90;83.80;;;;;;4995528;28;20058;-76
2021/05/28 09:44:21;;;;;;;4.28;2.30;;;16.90;83.10;;;;;;4977941;28;20499;-76
2021/05/28 09:47:14;;;;;;;4.10;2.40;;;17.00;82.80;;;;;;4994495;28;20479;-77
2021/05/28 09:49:43;;;;;;;5.10;2.45;;;17.00;81.30;;;;;;4972888;28;20137;-76
2021/05/28 09:52:16;;;;;;;4.68;2.60;;;17.00;81.40;;;;;;4994989;28;20082;-76
2021/05/28 09:54:56;;;;;;;5.75;2.95;;;17.10;82.10;;;;;;4995123;28;20047;-77
2021/05/28 09:57:33;;;;;;;5.03;3.40;;;17.00;82.30;;;;;;4995564;28;20054;-76
2021/05/28 10:00:00;;;;;;;5.88;2.67;;;17.10;82.80;;;;;;4994610;28;20085;-77
2021/05/28 10:02:32;;;;;;;4.00;2.38;;;17.10;83.60;;;;;;4994334;28;20508;-78
2021/05/28 10:05:00;;;;;;;5.20;2.78;;;17.20;83.60;;;;;;4994603;28;20043;-75
2021/05/28 10:07:28;;;;;;;5.68;2.50;;;17.20;82.30;;;;;;4994499;28;20412;-75
2021/05/28 10:09:56;;;;;;;4.95;2.40;;;17.30;82.30;;;;;;4994414;28;20129;-78
2021/05/28 10:12:25;;;;;;;4.03;2.17;;;17.30;81.80;;;;;;4994235;28;20585;-77
2021/05/28 10:14:53;;;;;;;4.90;1.90;;;17.30;81.80;;;;;;4994266;28;20125;-77
2021/05/28 10:17:20;;;;;;;5.93;2.63;;;17.30;81.80;;;;;;4994327;28;20464;-77
2021/05/28 10:19:50;;;;;;;4.72;2.00;;;17.30;78.60;;;;;;4995012;28;20054;-76
2021/05/28 10:22:18;;;;;;;4.95;2.10;;;17.30;77.40;;;;;;4994677;28;20081;-77
2021/05/28 10:24:45;;;;;;;4.65;2.70;;;17.30;77.60;;;;;;4993824;28;20101;-77
2021/05/28 10:27:20;;;;;;;4.28;2.38;;;17.30;77.90;;;;;;4994247;28;20708;-76
2021/05/28 10:29:50;;;;;;;3.92;2.22;;;17.30;78.40;;;;;;4994182;28;20142;-77
2021/05/28 10:32:17;;;;;;;5.13;2.70;;;17.30;77.50;;;;;;4994145;28;20074;-78
2021/05/28 10:35:05;;;;;;;4.75;2.30;;;17.30;77.40;;;;;;4994060;28;20050;-76
2021/05/28 10:37:32;;;;;;;4.40;2.20;;;17.30;78.60;;;;;;4994028;28;20061;-77
2021/05/28 10:39:59;;;;;;;4.78;2.00;;;17.20;78.60;;;;;;5001582;28;20069;-77
2021/05/28 10:42:29;;;;;;;5.00;2.30;;;17.20;79.20;;;;;;5004810;28;20202;-77
2021/05/28 10:44:56;;;;;;;4.25;2.28;;;17.20;78.50;;;;;;5003284;28;20057;-78
2021/05/28 10:47:23;;;;;;;3.95;2.00;;;17.20;77.10;;;;;;5002650;28;20129;-78
2021/05/28 10:49:53;;;;;;;5.70;2.35;;;17.20;77.20;;;;;;5000615;28;20085;-78
2021/05/28 10:52:32;;;;;;;4.13;2.10;;;17.20;77.30;;;;;;5003061;28;20060;-78
2021/05/28 10:55:02;;;;;;;3.83;1.90;;;17.30;78.60;;;;;;5001546;28;20050;-78
2021/05/28 10:57:33;;;;;;;4.38;2.22;;;17.40;78.00;;;;;;5003485;28;20129;-77
2021/05/28 11:00:09;;;;;;;3.90;2.15;;;17.50;78.10;;;;;;5008951;28;20064;-77
2021/05/28 11:02:49;;;;;;;4.15;2.40;;;17.60;79.30;;;;;;4991988;28;20049;-79
2021/05/28 11:05:37;;;;;;;4.90;2.00;;;17.60;76.50;;;;;;5002153;28;20050;-80
2021/05/28 11:08:36;;;;;;;4.43;2.50;;;17.70;76.60;;;;;;5001704;28;20054;-78
2021/05/28 11:11:03;;;;;;;4.35;2.28;;;17.70;76.40;;;;;;4996122;28;20050;-78
2021/05/28 11:13:30;;;;;;;5.43;2.33;;;17.70;77.10;;;;;;4987542;28;20365;-78
2021/05/28 11:15:58;;;;;;;4.10;2.22;;;17.70;77.10;;;;;;5002262;28;20141;-78
2021/05/28 11:18:29;;;;;;;3.88;2.05;;;17.80;75.80;;;;;;4998743;28;20192;-78
2021/05/28 11:21:15;;;;;;;4.32;2.17;;;17.80;75.90;;;;;;4998863;28;20072;-79
2021/05/28 11:23:45;;;;;;;3.95;2.17;;;17.80;76.10;;;;;;4998779;28;20053;-77
2021/05/28 11:26:17;;;;;;;4.97;2.40;;;18.00;75.60;;;;;;4999508;28;20145;-78
2021/05/28 11:28:54;;;;;;;4.05;2.10;;;18.00;74.10;;;;;;5002213;28;20054;-77
2021/05/28 11:31:23;;;;;;;4.60;2.30;;;18.10;73.20;;;;;;4994025;28;20078;-77
2021/05/28 11:33:57;;;;;;;3.80;1.90;;;18.10;73.10;;;;;;5008399;28;20133;-79
2021/05/28 11:36:52;;;;;;;4.05;2.03;;;18.30;72.90;;;;;;4999028;28;20141;-77
2021/05/28 11:39:25;;;;;;;5.30;2.30;;;18.40;72.50;;;;;;4992403;28;20070;-79
2021/05/28 11:42:00;;;;;;;4.18;2.40;;;18.50;72.00;;;;;;4983378;28;20475;-78
2021/05/28 11:44:30;;;;;;;3.70;2.25;;;18.60;69.80;;;;;;4988758;28;20050;-76
2021/05/28 11:46:57;;;;;;;4.40;2.00;;;18.60;67.50;;;;;;4988552;28;20132;-76
2021/05/28 11:49:25;;;;;;;4.25;2.08;;;18.60;67.60;;;;;;4990091;28;20129;-77
2021/05/28 11:52:05;;;;;;;4.75;1.80;;;18.60;67.80;;;;;;4987553;28;20092;-78
2021/05/28 11:54:34;;;;;;;4.47;2.10;;;18.70;68.30;;;;;;4986268;28;20105;-78
2021/05/28 11:57:05;;;;;;;3.83;1.85;;;18.80;67.20;;;;;;4992506;28;20109;-79
2021/05/28 11:59:55;;;;;;;5.25;2.17;;;19.00;66.20;;;;;;4986232;28;20078;-76
2021/05/28 12:02:47;;;;;;;3.17;1.50;;;19.00;64.50;;;;;;4989580;28;20488;-78
2021/05/28 12:05:32;;;;;;;4.60;1.85;;;18.90;66.20;;;;;;4995202;28;20068;-76
2021/05/28 12:08:00;;;;;;;;;;;18.90;65.50;;;;;;4994446;28;20101;-78
2021/05/28 12:10:29;;;;;;;4.25;1.75;;;18.90;64.60;;;;;;4997066;28;20370;-77
2021/05/28 12:13:00;;;;;;;3.88;1.70;;;18.90;64.10;;;;;;4992371;28;20126;-77
2021/05/28 12:15:30;;;;;;;4.10;1.90;;;19.00;64.40;;;;;;4989452;28;20073;-79
2021/05/28 12:17:57;;;;;;;4.53;2.60;;;18.90;64.20;;;;;;4993360;28;20488;-78
2021/05/28 12:20:27;;;;;;;3.63;1.88;;;18.90;61.30;;;;;;4996236;28;20039;-77
2021/05/28 12:23:12;;;;;;;2.88;1.50;;;18.80;62.40;;;;;;5003981;28;20137;-79
2021/05/28 12:25:45;;;;;;;4.32;1.63;;;18.80;63.80;;;;;;4991331;28;20077;-78
2021/05/28 12:28:23;;;;;;;3.03;1.50;;;19.00;64.70;;;;;;5002676;28;20140;-78
2021/05/28 12:30:55;;;;;;;3.58;1.60;;;19.20;64.70;;;;;;5001635;28;20056;-77
2021/05/28 12:33:28;;;;;;;3.38;1.42;;;19.30;64.70;;;;;;5002012;28;20078;-78
2021/05/28 12:35:58;;;;;;;3.95;1.90;;;19.40;63.30;;;;;;5003367;28;20060;-78
2021/05/28 12:38:33;;;;;;;6.03;3.75;;;19.50;61.80;;;;;;4996558;28;20100;-78
2021/05/28 12:41:02;;;;;;;3.92;1.95;;;19.50;58.00;;;;;;5003540;28;20219;-77
2021/05/28 12:43:33;;;;;;;3.72;1.42;;;19.50;59.90;;;;;;5002981;28;20077;-77
2021/05/28 12:46:01;;;;;;;3.42;1.45;;;19.50;59.20;;;;;;5003111;28;20096;-79
2021/05/28 12:48:50;;;;;;;3.55;1.58;;;19.50;60.10;;;;;;5006203;28;20054;-78
2021/05/28 12:51:18;;;;;;;3.80;1.50;;;19.60;61.20;;;;;;5001763;28;20050;-78
2021/05/28 12:53:46;;;;;;;3.08;1.60;;;19.70;60.30;;;;;;5003294;28;20049;-78
2021/05/28 12:56:25;;;;;;;3.67;1.90;;;20.00;60.70;;;;;;5001301;28;20819;-78
2021/05/28 12:58:53;;;;;;;4.93;2.80;;;20.00;58.60;;;;;;5000952;28;20082;-77
2021/05/28 13:01:21;;;;;;;5.43;3.00;;;20.00;57.40;;;;;;5007782;28;20506;-79
2021/05/28 13:03:51;;;;;;;4.05;1.95;;;20.00;56.60;;;;;;5003032;28;20126;-79
2021/05/28 13:06:47;;;;;;;5.07;2.55;;;19.90;57.80;;;;;;5000750;28;20504;-78
2021/05/28 13:09:19;;;;;;;3.95;2.20;;;19.90;57.40;;;;;;4996751;28;20112;-76
2021/05/28 13:12:00;;;;;;;5.30;2.30;;;19.90;58.60;;;;;;4999665;28;20457;-77
2021/05/28 13:14:34;;;;;;;3.17;1.60;;;19.90;59.90;;;;;;5002348;28;20121;-78
2021/05/28 13:17:28;;;;;;;5.10;1.55;;;20.10;56.50;;;;;;4986156;28;20053;-77
2021/05/28 13:19:57;;;;;;;2.50;1.13;;;20.30;56.90;;;;;;4979748;28;20093;-79
2021/05/28 13:22:36;;;;;;;3.90;1.60;;;20.50;56.60;;;;;;5000143;28;20089;-77
2021/05/28 13:25:22;;;;;;;2.50;1.27;;;20.70;54.60;;;;;;4989402;28;20133;-77
2021/05/28 13:28:02;;;;;;;3.50;1.42;;;20.80;54.50;;;;;;4993572;28;20042;-77
2021/05/28 13:30:33;;;;;;;3.25;1.40;;;21.00;55.10;;;;;;4996164;28;20053;-76
2021/05/28 13:33:15;;;;;;;2.85;1.38;;;21.20;55.00;;;;;;4991225;28;20047;-78
2021/05/28 13:35:42;;;;;;;2.90;1.13;;;21.50;54.10;;;;;;4985548;28;20129;-76
2021/05/28 13:38:09;;;;;;;2.33;1.20;;;21.60;53.30;;;;;;4990621;28;20050;-77
2021/05/28 13:40:38;;;;;;;3.50;1.20;;;21.80;53.40;;;;;;4991805;28;20496;-76
2021/05/28 13:43:06;;;;;;;5.28;1.38;;;22.00;50.30;;;;;;4993791;28;20059;-77
2021/05/28 13:45:34;;;;;;;2.42;1.15;;;22.10;49.00;;;;;;4982222;28;20080;-77
2021/05/28 13:48:01;;;;;;;2.45;1.10;;;22.00;49.90;;;;;;5003605;28;20088;-80
2021/05/28 13:50:34;;;;;;;2.72;1.15;;;22.00;50.50;;;;;;4989701;28;20068;-83
2021/05/28 13:53:04;;;;;;;3.40;1.50;;;22.10;48.70;;;;;;4984101;28;20420;-87
2021/05/28 13:55:31;;;;;;;3.65;1.20;;;22.10;47.70;;;;;;5005168;28;20077;-89
2021/05/28 13:57:58;;;;;;;3.63;1.48;;;22.20;48.90;;;;;;5003544;28;20077;-76
2021/05/28 14:00:27;;;;;;;3.00;1.30;;;22.20;46.80;;;;;;4999320;28;20038;-76
2021/05/28 14:02:54;;;;;;;2.38;1.20;;;22.30;47.20;;;;;;4998554;28;20077;-76
2021/05/28 14:05:21;;;;;;;2.55;1.17;;;22.40;46.40;;;;;;4981028;28;20081;-84
2021/05/28 14:07:48;;;;;;;2.22;1.08;;;22.30;47.40;;;;;;4987626;28;20133;-77
2021/05/28 14:10:16;;;;;;;3.45;1.35;;;22.20;48.90;;;;;;4996998;28;20503;-79
2021/05/28 14:12:43;;;;;;;3.63;1.20;;;22.40;49.30;;;;;;4985054;28;20038;-78
2021/05/28 14:15:12;;;;;;;2.60;1.00;;;22.50;49.30;;;;;;4999002;28;20042;-76
2021/05/28 14:17:40;;;;;;;2.88;1.08;;;22.50;49.00;;;;;;4975697;28;20046;-77
2021/05/28 14:20:09;;;;;;;3.10;1.00;;;22.60;48.50;;;;;;4992425;28;20512;-81
2021/05/28 14:22:39;;;;;;;2.13;0.90;;;22.70;49.00;;;;;;4972801;28;20381;-82
2021/05/28 14:25:11;;;;;;;2.45;1.10;;;22.90;49.20;;;;;;4991391;28;20518;-79
2021/05/28 14:27:38;;;;;;;2.35;0.80;;;23.10;48.50;;;;;;4996226;28;20129;-77
2021/05/28 14:30:12;;;;;;;3.22;1.20;;;22.90;47.80;;;;;;5004311;28;20124;-76
2021/05/28 14:32:42;;;;;;;2.42;1.20;;;22.90;47.50;;;;;;5007057;28;20144;-79
2021/05/28 14:35:10;;;;;;;2.25;0.88;;;23.00;47.20;;;;;;4998873;28;20050;-80
2021/05/28 14:37:37;;;;;;;2.08;0.85;;;23.30;47.40;;;;;;4990582;28;20050;-83
2021/05/28 14:40:05;;;;;;;3.38;1.35;;;23.50;46.70;;;;;;4991323;28;20129;-80
2021/05/28 14:42:32;;;;;;;5.05;2.67;;;23.70;46.00;;;;;;4982920;28;20054;-82
2021/05/28 14:45:00;;;;;;;4.05;1.67;;;24.00;45.30;;;;;;4982534;28;20547;-83
2021/05/28 14:47:27;;;;;;;5.35;2.25;;;24.30;44.40;;;;;;4991151;28;20120;-83
2021/05/28 14:49:54;;;;;;;4.00;1.30;;;24.50;43.10;;;;;;4991605;28;20077;-80
2021/05/28 14:52:21;;;;;;;2.22;0.82;;;24.60;41.30;;;;;;4991520;28;20053;-81
2021/05/28 14:54:48;;;;;;;2.47;1.10;;;24.80;41.80;;;;;;4990902;28;20078;-81
2021/05/28 14:57:15;;;;;;;2.08;0.82;;;25.00;42.00;;;;;;4990987;28;20078;-79
2021/05/28 14:59:42;;;;;;;3.17;1.10;;;25.10;40.30;;;;;;4991597;28;20054;-78
2021/05/28 15:02:10;;;;;;;2.42;1.00;;;25.20;40.60;;;;;;4991059;28;20089;-81
2021/05/28 15:04:36;;;;;;;2.30;0.88;;;25.30;40.50;;;;;;4992000;28;20089;-78
2021/05/28 15:07:05;;;;;;;2.50;0.93;;;25.40;41.50;;;;;;4998884;28;20046;-76
2021/05/28 15:09:31;;;;;;;2.45;1.17;;;25.50;42.00;;;;;;5000714;28;20141;-83
2021/05/28 15:11:58;;;;;;;3.47;1.00;;;25.50;45.30;;;;;;4969590;28;20490;-83
2021/05/28 15:14:25;;;;;;;3.53;1.00;;;25.50;45.00;;;;;;4980382;28;20558;-77
2021/05/28 15:16:52;;;;;;;2.67;1.00;;;25.30;44.20;;;;;;4970599;28;20113;-79
2021/05/28 15:19:19;;;;;;;2.08;0.90;;;25.30;44.40;;;;;;4991456;28;20082;-83
2021/05/28 15:21:50;;;;;;;2.50;1.20;;;25.40;43.40;;;;;;4995712;28;20080;-81
2021/05/28 15:24:18;;;;;;;3.03;1.00;;;25.50;43.80;;;;;;4992096;28;20042;-80
2021/05/28 15:26:45;;;;;;;2.20;1.00;;;25.60;43.60;;;;;;4993636;28;20527;-82
2021/05/28 15:29:11;;;;;;;2.00;1.00;;;25.60;44.10;;;;;;5003039;28;20501;-77
2021/05/28 15:31:41;;;;;;;3.70;1.48;;;25.60;42.60;;;;;;5003357;28;20645;-81
2021/05/28 15:34:08;;;;;;;2.70;1.17;;;25.60;43.00;;;;;;5003262;28;20479;-83
2021/05/28 15:36:35;;;;;;;1.90;0.80;;;25.50;43.20;;;;;;5008655;28;20050;-85
2021/05/28 15:39:04;;;;;;;2.45;0.90;;;25.60;43.80;;;;;;5002600;28;20468;-83
2021/05/28 15:41:32;;;;;;;2.58;0.90;;;25.80;43.20;;;;;;4987817;28;20046;-83
2021/05/28 15:43:59;;;;;;;3.65;1.50;;;25.90;43.20;;;;;;5002719;28;20077;-85
2021/05/28 15:46:27;;;;;;;2.92;1.35;;;26.10;41.80;;;;;;4999008;28;20077;-78
2021/05/28 15:48:54;;;;;;;3.58;1.25;;;26.10;42.10;;;;;;5007995;28;20081;-77
2021/05/28 15:51:21;;;;;;;4.93;2.60;;;26.20;42.60;;;;;;5005784;28;20093;-76
2021/05/28 15:53:48;;;;;;;2.40;1.10;;;26.40;42.50;;;;;;4994419;28;20081;-77
2021/05/28 15:56:15;;;;;;;3.72;1.60;;;26.50;41.80;;;;;;4964555;28;20056;-76
2021/05/28 15:58:43;;;;;;;3.35;1.50;;;26.70;40.90;;;;;;5000121;28;20254;-76
2021/05/28 16:01:13;;;;;;;2.92;1.30;;;26.90;41.00;;;;;;4997825;28;20077;-78
2021/05/28 16:03:40;;;;;;;2.40;1.00;;;26.90;40.30;;;;;;4996091;28;20046;-76
2021/05/28 16:06:07;;;;;;;2.22;1.00;;;27.00;40.10;;;;;;4996241;28;20385;-77
2021/05/28 16:08:34;;;;;;;2.15;0.70;;;27.00;39.70;;;;;;4996796;28;20054;-77
2021/05/28 16:11:01;;;;;;;1.77;0.80;;;27.00;40.20;;;;;;4995881;28;20097;-78
2021/05/28 16:13:28;;;;;;;2.53;0.80;;;27.10;39.30;;;;;;4996649;28;20084;-78
2021/05/28 16:15:55;;;;;;;2.22;1.00;;;27.10;38.90;;;;;;4998107;28;20061;-78
2021/05/28 16:18:22;;;;;;;3.33;1.60;;;27.00;40.00;;;;;;4998435;28;20508;-78
2021/05/28 16:20:49;;;;;;;2.67;1.10;;;27.00;39.20;;;;;;4986042;28;20051;-74
2021/05/28 16:23:15;;;;;;;2.20;1.00;;;27.00;39.40;;;;;;4985918;28;20583;-76
2021/05/28 16:25:45;;;;;;;2.50;1.08;;;26.90;39.90;;;;;;4992549;28;20132;-78
2021/05/28 16:28:13;;;;;;;3.10;1.02;;;26.90;40.30;;;;;;4996265;28;20077;-77
2021/05/28 16:30:41;;;;;;;2.25;0.90;;;26.80;39.90;;;;;;4990803;28;20530;-79
2021/05/28 16:33:11;;;;;;;1.60;0.80;;;26.80;39.80;;;;;;4998719;28;20399;-78
2021/05/28 16:35:38;;;;;;;2.50;1.00;;;26.70;39.00;;;;;;5007637;28;20100;-77
2021/05/28 16:38:05;;;;;;;2.40;1.10;;;26.60;39.80;;;;;;5005854;28;20101;-76
2021/05/28 16:40:32;;;;;;;4.28;1.10;;;26.50;39.90;;;;;;5005113;28;20046;-76
2021/05/28 16:42:59;;;;;;;2.53;0.90;;;26.40;39.40;;;;;;5008337;28;20128;-76
2021/05/28 16:45:26;;;;;;;2.85;0.90;;;26.30;39.40;;;;;;5003621;28;20070;-78
2021/05/28 16:47:53;;;;;;;3.40;1.05;;;26.10;39.40;;;;;;4995679;28;20137;-77
2021/05/28 16:50:21;;;;;;;3.85;1.50;;;26.00;39.60;;;;;;5004434;28;20682;-79
2021/05/28 16:52:47;;;;;;;2.65;1.00;;;25.80;39.80;;;;;;5003777;28;20074;-75
2021/05/28 16:55:14;;;;;;;2.28;0.93;;;25.70;40.10;;;;;;5004679;28;20082;-75
2021/05/28 16:57:41;;;;;;;3.05;1.00;;;25.60;40.30;;;;;;5002193;28;20492;-81
2021/05/28 17:00:12;;;;;;;3.00;0.90;;;25.70;39.30;;;;;;4994875;28;20492;-77
2021/05/28 17:02:39;;;;;;;2.30;0.90;;;25.60;40.00;;;;;;4993077;28;20043;-74
2021/05/28 17:05:08;;;;;;;2.45;0.90;;;25.50;40.50;;;;;;4993307;28;20142;-79
2021/05/28 17:07:36;;;;;;;2.80;0.90;;;25.30;40.40;;;;;;4994516;28;20133;-77
2021/05/28 17:10:04;;;;;;;2.88;0.90;;;25.30;40.70;;;;;;4983100;28;20088;-74
2021/05/28 17:12:31;;;;;;;1.52;0.75;;;25.20;40.50;;;;;;4987849;28;20049;-76
2021/05/28 17:14:58;;;;;;;4.10;1.00;;;25.20;40.60;;;;;;4995305;28;20046;-75
2021/05/28 17:17:25;;;;;;;1.73;0.80;;;25.20;40.40;;;;;;4994785;28;20125;-80
2021/05/28 17:19:51;;;;;;;1.95;0.80;;;25.00;40.40;;;;;;4994881;28;20050;-76
2021/05/28 17:22:18;;;;;;;2.00;0.82;;;25.00;42.30;;;;;;4995833;28;20078;-76
2021/05/28 17:24:46;;;;;;;2.03;0.90;;;24.90;41.80;;;;;;4994462;28;20038;-77
2021/05/28 17:27:12;;;;;;;2.13;0.75;;;24.90;41.60;;;;;;4994940;28;20050;-76
2021/05/28 17:29:39;;;;;;;3.20;1.00;;;24.80;40.90;;;;;;4994890;28;20467;-77
2021/05/28 17:32:07;;;;;;;2.35;0.90;;;24.60;41.70;;;;;;4994815;28;20134;-77
2021/05/28 17:34:34;;;;;;;2.80;0.90;;;24.40;42.30;;;;;;4994722;28;20476;-78
2021/05/28 17:37:01;;;;;;;2.60;1.20;;;24.40;42.80;;;;;;4995038;28;20457;-77
2021/05/28 17:39:27;;;;;;;3.08;0.93;;;24.40;42.00;;;;;;4993894;28;20043;-77
2021/05/28 17:41:55;;;;;;;2.25;0.93;;;24.40;42.80;;;;;;4996467;28;20058;-76
2021/05/28 17:44:21;;;;;;;2.00;0.80;;;24.30;42.50;;;;;;4994624;28;20487;-77
2021/05/28 17:46:49;;;;;;;2.35;1.00;;;24.10;42.40;;;;;;4994619;28;20520;-77
2021/05/28 17:49:15;;;;;;;4.53;1.25;;;24.10;42.60;;;;;;4993690;28;20054;-77
2021/05/28 17:51:42;;;;;;;2.70;1.00;;;24.00;41.80;;;;;;4997979;28;20133;-77
2021/05/28 17:54:09;;;;;;;2.55;0.90;;;23.90;42.30;;;;;;5004758;28;20089;-76
2021/05/28 17:56:36;;;;;;;2.35;0.93;;;23.60;42.90;;;;;;5005619;28;20471;-76
2021/05/28 17:59:04;;;;;;;1.95;0.80;;;23.20;43.00;;;;;;5005240;28;20562;-77